createdAt,value
2019-04-27T00:01:10.458Z,77.82
2019-04-27T00:03:41.169Z,77.52
2019-04-27T00:06:08.705Z,77.48
2019-04-27T00:08:44.368Z,77.61
2019-04-27T00:11:14.208Z,77.70
2019-04-27T00:13:43.992Z,77.51
2019-04-27T00:16:13.912Z,77.77
2019-04-27T00:18:45.511Z,77.78
2019-04-27T00:21:32.791Z,77.96
2019-04-27T00:24:01.114Z,77.82
2019-04-27T00:26:29.322Z,77.51
2019-04-27T00:28:57.530Z,77.57
2019-04-27T00:31:25.736Z,77.66
2019-04-27T00:33:53.961Z,77.60
2019-04-27T00:36:32.957Z,78.04
2019-04-27T00:39:07.445Z,78.12
2019-04-27T00:41:35.661Z,78.07
2019-04-27T00:44:03.933Z,78.04
2019-04-27T00:46:33.063Z,78.23
2019-04-27T00:49:01.333Z,78.27
2019-04-27T00:51:29.564Z,78.71
2019-04-27T00:53:57.769Z,78.39
2019-04-27T00:56:42.972Z,78.45
2019-04-27T00:59:27.296Z,78.54
2019-04-27T01:02:14.952Z,78.48
2019-04-27T01:04:43.322Z,78.68
2019-04-27T01:07:11.612Z,78.63
2019-04-27T01:09:39.991Z,78.57
2019-04-27T01:12:08.573Z,78.61
2019-04-27T01:14:36.786Z,78.81
2019-04-27T01:17:04.985Z,78.70
2019-04-27T01:19:33.202Z,78.82
2019-04-27T01:22:01.473Z,78.57
2019-04-27T01:24:30.479Z,78.64
2019-04-27T01:27:00.325Z,78.36
2019-04-27T01:29:32.837Z,78.52
2019-04-27T01:32:01.227Z,78.65
2019-04-27T01:34:29.610Z,78.62
2019-04-27T01:36:59.405Z,78.42
2019-04-27T01:39:28.912Z,78.86
2019-04-27T01:41:58.942Z,79.03
2019-04-27T01:44:27.389Z,78.77
2019-04-27T01:46:55.621Z,78.95
2019-04-27T01:49:23.828Z,78.86
2019-04-27T01:51:52.030Z,79.01
2019-04-27T01:54:21.895Z,78.87
2019-04-27T01:56:50.101Z,79.22
2019-04-27T01:59:19.873Z,79.27
2019-04-27T02:01:55.349Z,79.31
2019-04-27T02:04:36.967Z,79.15
2019-04-27T02:07:09.171Z,79.03
2019-04-27T02:09:38.676Z,79.05
2019-04-27T02:12:06.956Z,79.05
2019-04-27T02:14:35.164Z,78.90
2019-04-27T02:17:03.384Z,79.00
2019-04-27T02:19:31.595Z,79.17
2019-04-27T02:21:59.880Z,79.27
2019-04-27T02:24:28.800Z,79.19
2019-04-27T02:26:58.740Z,79.16
2019-04-27T02:29:31.374Z,79.27
2019-04-27T02:32:03.925Z,79.60
2019-04-27T02:34:33.758Z,79.40
2019-04-27T02:37:02.688Z,79.14
2019-04-27T02:39:31.147Z,79.17
2019-04-27T02:42:00.223Z,79.48
2019-04-27T02:44:30.325Z,79.26
2019-04-27T02:47:00.407Z,79.19
2019-04-27T02:49:30.356Z,79.27
2019-04-27T02:52:00.006Z,79.35
2019-04-27T02:54:29.845Z,79.53
2019-04-27T02:56:59.390Z,79.40
2019-04-27T02:59:30.323Z,79.66
2019-04-27T03:02:02.007Z,79.28
2019-04-27T03:04:30.456Z,79.21
2019-04-27T03:07:00.286Z,79.28
2019-04-27T03:09:30.428Z,79.28
2019-04-27T03:11:59.879Z,79.08
2019-04-27T03:14:36.593Z,78.97
2019-04-27T03:17:06.578Z,79.08
2019-04-27T03:19:36.420Z,79.27
2019-04-27T03:22:14.823Z,79.22
2019-04-27T03:24:53.643Z,79.36
2019-04-27T03:27:23.503Z,79.40
2019-04-27T03:29:51.717Z,79.47
2019-04-27T03:32:22.701Z,79.28
2019-04-27T03:34:52.453Z,79.17
2019-04-27T03:37:20.358Z,79.01
2019-04-27T03:39:49.868Z,78.87
2019-04-27T03:42:20.614Z,79.15
2019-04-27T03:44:50.243Z,79.62
2019-04-27T03:47:19.798Z,79.78
2019-04-27T03:49:50.652Z,79.88
2019-04-27T03:52:29.977Z,79.64
2019-04-27T03:55:05.713Z,79.63
2019-04-27T03:57:51.503Z,79.79
2019-04-27T04:00:31.281Z,79.89
2019-04-27T04:03:00.593Z,79.94
2019-04-27T04:05:30.099Z,79.96
2019-04-27T04:08:00.424Z,79.95
2019-04-27T04:10:29.970Z,79.96
2019-04-27T04:13:10.716Z,80.11
2019-04-27T04:16:00.129Z,80.20
2019-04-27T04:18:29.368Z,80.26
2019-04-27T04:21:00.342Z,80.14
2019-04-27T04:23:29.731Z,80.03
2019-04-27T04:25:59.731Z,79.95
2019-04-27T04:28:29.560Z,79.82
2019-04-27T04:30:57.517Z,79.99
2019-04-27T04:33:25.737Z,80.12
2019-04-27T04:35:53.951Z,79.82
2019-04-27T04:38:22.170Z,79.85
2019-04-27T04:40:52.031Z,79.98
2019-04-27T04:43:36.318Z,80.25
2019-04-27T04:46:23.173Z,80.00
2019-04-27T04:48:51.493Z,80.41
2019-04-27T04:51:20.151Z,80.51
2019-04-27T04:53:48.824Z,80.47
2019-04-27T04:56:18.872Z,80.35
2019-04-27T04:58:47.124Z,80.30
2019-04-27T05:01:15.339Z,80.24
2019-04-27T05:03:43.569Z,80.35
2019-04-27T05:06:11.780Z,80.54
2019-04-27T05:08:40.003Z,80.30
2019-04-27T05:11:09.601Z,80.39
2019-04-27T05:13:39.351Z,80.47
2019-04-27T05:16:08.939Z,80.33
2019-04-27T05:18:37.193Z,80.25
2019-04-27T05:21:12.784Z,80.25
2019-04-27T05:23:40.987Z,80.34
2019-04-27T05:26:09.313Z,80.40
2019-04-27T05:28:38.395Z,80.38
2019-04-27T05:31:09.018Z,80.06
2019-04-27T05:33:38.867Z,80.10
2019-04-27T05:36:07.064Z,80.01
2019-04-27T05:38:35.271Z,80.12
2019-04-27T05:41:03.494Z,79.94
2019-04-27T05:43:33.419Z,79.69
2019-04-27T05:46:29.736Z,79.53
2019-04-27T05:48:59.904Z,79.65
2019-04-27T05:51:36.736Z,79.87
2019-04-27T05:53:58.866Z,79.81
2019-04-27T05:56:28.860Z,79.84
2019-04-27T05:58:57.065Z,79.80
2019-04-27T06:01:25.288Z,79.76
2019-04-27T06:03:53.758Z,79.72
2019-04-27T06:06:22.270Z,79.79
2019-04-27T06:08:50.716Z,79.91
2019-04-27T06:11:19.720Z,80.16
2019-04-27T06:13:49.250Z,80.06
2019-04-27T06:16:19.346Z,80.08
2019-04-27T06:18:49.329Z,79.91
2019-04-27T06:21:19.444Z,79.61
2019-04-27T06:23:48.786Z,79.68
2019-04-27T06:26:17.272Z,79.66
2019-04-27T06:28:45.479Z,79.67
2019-04-27T06:31:13.713Z,79.72
2019-04-27T06:33:41.918Z,79.47
2019-04-27T06:36:10.200Z,79.37
2019-04-27T06:38:39.362Z,79.25
2019-04-27T06:41:09.776Z,79.02
2019-04-27T06:43:37.563Z,78.72
2019-04-27T06:46:06.145Z,78.42
2019-04-27T06:48:34.406Z,78.23
2019-04-27T06:51:05.544Z,77.96
2019-04-27T06:53:32.626Z,77.67
2019-04-27T06:56:01.080Z,77.56
2019-04-27T06:58:29.376Z,77.42
2019-04-27T07:00:59.372Z,77.09
2019-04-27T07:03:28.958Z,77.04
2019-04-27T07:05:58.826Z,76.85
2019-04-27T07:08:28.633Z,76.44
2019-04-27T07:10:58.753Z,76.44
2019-04-27T07:13:28.983Z,76.45
2019-04-27T07:15:57.123Z,76.49
2019-04-27T07:18:25.345Z,76.33
2019-04-27T07:20:53.569Z,76.15
2019-04-27T07:23:22.058Z,76.09
2019-04-27T07:25:50.547Z,76.01
2019-04-27T07:28:19.117Z,75.69
2019-04-27T07:30:48.783Z,75.40
2019-04-27T07:33:18.490Z,75.18
2019-04-27T07:35:46.803Z,74.79
2019-04-27T07:38:15.078Z,74.42
2019-04-27T07:40:43.478Z,73.93
2019-04-27T07:43:31.195Z,73.48
2019-04-27T07:45:59.673Z,73.44
2019-04-27T07:48:28.542Z,73.50
2019-04-27T07:50:56.773Z,73.36
2019-04-27T07:53:24.973Z,73.38
2019-04-27T07:55:53.183Z,73.12
2019-04-27T07:58:22.240Z,73.02
2019-04-27T08:00:51.092Z,73.15
2019-04-27T08:03:19.627Z,73.28
2019-04-27T08:05:49.119Z,73.21
2019-04-27T08:08:18.999Z,72.99
2019-04-27T08:10:48.438Z,72.40
2019-04-27T08:13:17.272Z,72.30
2019-04-27T08:15:45.766Z,72.25
2019-04-27T08:18:14.241Z,72.13
2019-04-27T08:20:42.724Z,72.22
2019-04-27T08:23:11.200Z,71.84
2019-04-27T08:25:39.702Z,71.34
2019-04-27T08:28:10.437Z,70.86
2019-04-27T08:30:40.346Z,70.84
2019-04-27T08:33:10.379Z,70.71
2019-04-27T08:35:38.880Z,70.57
2019-04-27T08:38:09.114Z,70.74
2019-04-27T08:40:39.347Z,70.26
2019-04-27T08:43:09.222Z,69.79
2019-04-27T08:45:39.221Z,69.38
2019-04-27T08:48:09.337Z,69.33
2019-04-27T08:50:39.718Z,69.71
2019-04-27T08:53:09.715Z,70.17
2019-04-27T08:55:39.531Z,69.86
2019-04-27T08:58:07.827Z,68.73
2019-04-27T09:00:36.335Z,67.64
2019-04-27T09:03:04.812Z,67.69
2019-04-27T09:05:33.312Z,67.49
2019-04-27T09:08:18.917Z,67.91
2019-04-27T09:11:04.999Z,67.60
2019-04-27T09:13:39.362Z,67.42
2019-04-27T09:16:15.479Z,66.59
2019-04-27T09:18:43.836Z,65.31
2019-04-27T09:21:12.324Z,64.21
2019-04-27T09:23:40.523Z,64.14
2019-04-27T09:26:09.572Z,64.51
2019-04-27T09:28:38.918Z,65.16
2019-04-27T09:31:08.723Z,64.66
2019-04-27T09:33:37.007Z,64.25
2019-04-27T09:36:06.138Z,64.13
2019-04-27T09:38:35.786Z,64.23
2019-04-27T09:41:04.087Z,63.84
2019-04-27T09:43:32.284Z,62.77
2019-04-27T09:46:00.721Z,62.86
2019-04-27T09:48:29.196Z,62.41
2019-04-27T09:50:57.686Z,62.37
2019-04-27T09:53:27.064Z,62.04
2019-04-27T09:55:55.718Z,61.91
2019-04-27T09:58:25.593Z,61.47
2019-04-27T10:00:53.919Z,61.20
2019-04-27T10:03:22.174Z,61.71
2019-04-27T10:05:50.390Z,61.32
2019-04-27T10:08:18.586Z,61.25
2019-04-27T10:10:48.010Z,61.51
2019-04-27T10:13:16.276Z,61.85
2019-04-27T10:15:45.966Z,61.97
2019-04-27T10:18:16.199Z,61.47
2019-04-27T10:20:58.284Z,60.62
2019-04-27T10:23:14.035Z,59.58
2019-04-27T10:25:42.234Z,58.88
2019-04-27T10:28:10.444Z,58.32
2019-04-27T10:30:38.640Z,58.87
2019-04-27T10:33:08.205Z,59.29
2019-04-27T10:35:36.497Z,58.48
2019-04-27T10:38:04.634Z,57.37
2019-04-27T10:40:32.844Z,56.46
2019-04-27T10:43:01.039Z,55.60
2019-04-27T10:45:29.245Z,55.24
2019-04-27T10:47:57.439Z,54.65
2019-04-27T10:50:26.513Z,54.42
2019-04-27T10:52:58.908Z,53.51
2019-04-27T10:55:26.170Z,53.57
2019-04-27T10:57:54.425Z,53.99
2019-04-27T11:00:39.291Z,53.88
2019-04-27T11:03:07.708Z,53.48
2019-04-27T11:05:46.778Z,52.39
2019-04-27T11:08:16.729Z,53.48
2019-04-27T11:10:46.168Z,53.04
2019-04-27T11:13:16.361Z,52.10
2019-04-27T11:15:46.146Z,52.46
2019-04-27T11:18:14.450Z,52.11
2019-04-27T11:20:42.665Z,51.65
2019-04-27T11:23:12.430Z,51.08
2019-04-27T11:25:40.957Z,50.48
2019-04-27T11:28:09.399Z,50.64
2019-04-27T11:30:37.610Z,50.15
2019-04-27T11:33:06.338Z,50.32
2019-04-27T11:35:36.217Z,49.90
2019-04-27T11:38:05.585Z,49.04
2019-04-27T11:40:33.864Z,49.66
2019-04-27T11:43:02.356Z,48.83
2019-04-27T11:45:30.840Z,48.51
2019-04-27T11:47:59.299Z,48.92
2019-04-27T11:50:27.540Z,48.96
2019-04-27T11:52:56.642Z,49.37
2019-04-27T11:55:25.047Z,49.43
2019-04-27T11:57:53.244Z,49.10
2019-04-27T12:00:24.068Z,47.88
2019-04-27T12:02:52.265Z,46.58
2019-04-27T12:05:20.841Z,46.69
2019-04-27T12:07:49.219Z,47.28
2019-04-27T12:10:17.684Z,48.14
2019-04-27T12:12:46.455Z,48.69
2019-04-27T12:15:16.101Z,48.96
2019-04-27T12:17:46.047Z,49.05
2019-04-27T12:20:15.974Z,48.42
2019-04-27T12:22:44.702Z,48.81
2019-04-27T12:25:13.193Z,48.83
2019-04-27T12:28:01.447Z,48.42
2019-04-27T12:30:33.927Z,48.07
2019-04-27T12:33:02.131Z,48.94
2019-04-27T12:35:30.345Z,48.94
2019-04-27T12:37:58.638Z,49.17
2019-04-27T12:40:27.143Z,48.89
2019-04-27T12:42:55.607Z,48.17
2019-04-27T12:45:24.109Z,47.18
2019-04-27T12:47:52.325Z,47.21
2019-04-27T12:50:21.096Z,46.72
2019-04-27T12:52:53.588Z,46.44
2019-04-27T12:55:39.668Z,46.06
2019-04-27T12:58:26.519Z,45.08
2019-04-27T13:00:56.402Z,44.90
2019-04-27T13:03:26.072Z,44.82
2019-04-27T13:05:54.445Z,44.65
2019-04-27T13:08:22.905Z,43.96
2019-04-27T13:10:51.394Z,43.51
2019-04-27T13:13:19.863Z,43.87
2019-04-27T13:15:48.369Z,44.16
2019-04-27T13:18:16.903Z,44.59
2019-04-27T13:20:45.316Z,44.15
2019-04-27T13:23:13.773Z,43.69
2019-04-27T13:25:42.635Z,43.74
2019-04-27T13:28:10.845Z,43.89
2019-04-27T13:30:39.237Z,43.67
2019-04-27T13:33:07.444Z,42.66
2019-04-27T13:35:35.684Z,42.61
2019-04-27T13:38:03.886Z,42.20
2019-04-27T13:40:35.577Z,42.49
2019-04-27T13:43:05.512Z,42.76
2019-04-27T13:45:38.006Z,43.38
2019-04-27T13:48:10.841Z,43.02
2019-04-27T13:50:46.850Z,42.84
2019-04-27T13:53:16.737Z,42.62
2019-04-27T13:55:46.707Z,42.52
2019-04-27T13:58:15.054Z,42.56
2019-04-27T14:00:43.552Z,43.03
2019-04-27T14:03:11.752Z,43.69
2019-04-27T14:05:39.965Z,43.93
2019-04-27T14:08:09.177Z,43.58
2019-04-27T14:10:38.657Z,43.53
2019-04-27T14:13:08.828Z,43.52
2019-04-27T14:15:38.869Z,43.09
2019-04-27T14:18:08.415Z,42.93
2019-04-27T14:20:38.810Z,43.24
